sensor_id;sensor_type;location;lat;lon;timestamp;P1;durP1;ratioP1;P2;durP2;ratioP2
8102;SDS011;4094;49.948;11.574;2024-01-07T00:02:44;19.33;;;17.63;;
8102;SDS011;4094;49.948;11.574;2024-01-07T00:05:32;19.63;;;17.93;;
8102;SDS011;4094;49.948;11.574;2024-01-07T00:08:24;18.80;;;17.17;;
8102;SDS011;4094;49.948;11.574;2024-01-07T00:11:12;18.27;;;16.77;;
8102;SDS011;4094;49.948;11.574;2024-01-07T00:13:59;18.83;;;17.23;;
8102;SDS011;4094;49.948;11.574;2024-01-07T00:16:47;18.43;;;16.70;;
8102;SDS011;4094;49.948;11.574;2024-01-07T00:19:35;18.90;;;17.30;;
8102;SDS011;4094;49.948;11.574;2024-01-07T00:22:24;18.93;;;17.43;;
8102;SDS011;4094;49.948;11.574;2024-01-07T00:25:14;19.10;;;17.40;;
8102;SDS011;4094;49.948;11.574;2024-01-07T00:28:02;18.30;;;16.73;;
8102;SDS011;4094;49.948;11.574;2024-01-07T00:30:50;18.93;;;17.23;;
8102;SDS011;4094;49.948;11.574;2024-01-07T00:33:39;18.43;;;16.83;;
8102;SDS011;4094;49.948;11.574;2024-01-07T00:36:27;19.13;;;17.53;;
8102;SDS011;4094;49.948;11.574;2024-01-07T00:39:15;19.80;;;17.93;;
8102;SDS011;4094;49.948;11.574;2024-01-07T00:42:04;20.57;;;18.50;;
8102;SDS011;4094;49.948;11.574;2024-01-07T00:44:52;20.00;;;18.30;;
8102;SDS011;4094;49.948;11.574;2024-01-07T00:47:40;20.77;;;18.73;;
8102;SDS011;4094;49.948;11.574;2024-01-07T00:50:28;20.37;;;18.47;;
8102;SDS011;4094;49.948;11.574;2024-01-07T00:53:16;19.23;;;17.63;;
8102;SDS011;4094;49.948;11.574;2024-01-07T00:56:04;20.73;;;18.83;;
8102;SDS011;4094;49.948;11.574;2024-01-07T00:58:54;20.70;;;18.83;;
8102;SDS011;4094;49.948;11.574;2024-01-07T01:01:42;19.03;;;17.37;;
8102;SDS011;4094;49.948;11.574;2024-01-07T01:04:30;17.80;;;16.50;;
8102;SDS011;4094;49.948;11.574;2024-01-07T01:07:19;18.23;;;16.53;;
8102;SDS011;4094;49.948;11.574;2024-01-07T01:10:09;18.70;;;17.10;;
8102;SDS011;4094;49.948;11.574;2024-01-07T01:12:57;18.10;;;16.60;;
8102;SDS011;4094;49.948;11.574;2024-01-07T01:15:46;18.67;;;17.00;;
8102;SDS011;4094;49.948;11.574;2024-01-07T01:18:33;17.27;;;15.80;;
8102;SDS011;4094;49.948;11.574;2024-01-07T01:21:22;19.20;;;17.40;;
8102;SDS011;4094;49.948;11.574;2024-01-07T01:24:11;19.07;;;17.27;;
8102;SDS011;4094;49.948;11.574;2024-01-07T01:26:59;19.10;;;17.40;;
8102;SDS011;4094;49.948;11.574;2024-01-07T01:29:49;18.63;;;16.93;;
8102;SDS011;4094;49.948;11.574;2024-01-07T01:32:37;19.47;;;17.73;;
8102;SDS011;4094;49.948;11.574;2024-01-07T01:35:26;19.17;;;17.57;;
8102;SDS011;4094;49.948;11.574;2024-01-07T01:38:14;17.50;;;16.00;;
8102;SDS011;4094;49.948;11.574;2024-01-07T01:41:04;18.40;;;16.70;;
8102;SDS011;4094;49.948;11.574;2024-01-07T01:43:57;18.07;;;16.57;;
8102;SDS011;4094;49.948;11.574;2024-01-07T01:46:46;18.77;;;17.07;;
8102;SDS011;4094;49.948;11.574;2024-01-07T01:49:36;18.77;;;17.07;;
8102;SDS011;4094;49.948;11.574;2024-01-07T01:52:27;18.67;;;17.07;;
8102;SDS011;4094;49.948;11.574;2024-01-07T01:55:15;17.70;;;16.20;;
8102;SDS011;4094;49.948;11.574;2024-01-07T01:58:04;18.27;;;16.67;;
8102;SDS011;4094;49.948;11.574;2024-01-07T02:00:53;16.87;;;15.43;;
8102;SDS011;4094;49.948;11.574;2024-01-07T02:03:41;17.17;;;15.80;;
8102;SDS011;4094;49.948;11.574;2024-01-07T02:06:31;17.53;;;15.93;;
8102;SDS011;4094;49.948;11.574;2024-01-07T02:09:21;17.37;;;15.93;;
8102;SDS011;4094;49.948;11.574;2024-01-07T02:12:09;17.37;;;15.90;;
8102;SDS011;4094;49.948;11.574;2024-01-07T02:14:58;17.63;;;16.13;;
8102;SDS011;4094;49.948;11.574;2024-01-07T02:17:46;17.80;;;16.30;;
8102;SDS011;4094;49.948;11.574;2024-01-07T02:20:35;18.07;;;16.50;;
8102;SDS011;4094;49.948;11.574;2024-01-07T02:23:24;18.20;;;16.60;;
8102;SDS011;4094;49.948;11.574;2024-01-07T02:26:13;18.50;;;16.90;;
8102;SDS011;4094;49.948;11.574;2024-01-07T02:29:01;17.63;;;16.13;;
8102;SDS011;4094;49.948;11.574;2024-01-07T02:31:49;17.80;;;16.30;;
8102;SDS011;4094;49.948;11.574;2024-01-07T02:34:38;17.90;;;16.50;;
8102;SDS011;4094;49.948;11.574;2024-01-07T02:37:26;17.13;;;15.77;;
8102;SDS011;4094;49.948;11.574;2024-01-07T02:40:14;17.43;;;15.93;;
8102;SDS011;4094;49.948;11.574;2024-01-07T02:43:03;16.13;;;14.73;;
8102;SDS011;4094;49.948;11.574;2024-01-07T02:45:52;17.23;;;15.83;;
8102;SDS011;4094;49.948;11.574;2024-01-07T02:48:40;17.40;;;15.90;;
8102;SDS011;4094;49.948;11.574;2024-01-07T02:51:29;17.37;;;15.93;;
8102;SDS011;4094;49.948;11.574;2024-01-07T02:54:17;17.37;;;15.87;;
8102;SDS011;4094;49.948;11.574;2024-01-07T02:57:05;17.20;;;15.70;;
8102;SDS011;4094;49.948;11.574;2024-01-07T02:59:54;17.27;;;15.87;;
8102;SDS011;4094;49.948;11.574;2024-01-07T03:02:42;17.50;;;16.00;;
8102;SDS011;4094;49.948;11.574;2024-01-07T03:05:30;17.53;;;16.10;;
8102;SDS011;4094;49.948;11.574;2024-01-07T03:08:20;16.60;;;15.30;;
8102;SDS011;4094;49.948;11.574;2024-01-07T03:11:09;16.97;;;15.53;;
8102;SDS011;4094;49.948;11.574;2024-01-07T03:14:00;17.00;;;15.70;;
8102;SDS011;4094;49.948;11.574;2024-01-07T03:16:49;16.37;;;15.07;;
8102;SDS011;4094;49.948;11.574;2024-01-07T03:19:38;16.20;;;15.00;;
8102;SDS011;4094;49.948;11.574;2024-01-07T03:22:26;17.27;;;15.77;;
8102;SDS011;4094;49.948;11.574;2024-01-07T03:25:14;17.00;;;15.50;;
8102;SDS011;4094;49.948;11.574;2024-01-07T03:28:02;16.90;;;15.60;;
8102;SDS011;4094;49.948;11.574;2024-01-07T03:30:50;16.47;;;15.17;;
8102;SDS011;4094;49.948;11.574;2024-01-07T03:33:40;16.57;;;15.27;;
8102;SDS011;4094;49.948;11.574;2024-01-07T03:36:29;16.40;;;15.10;;
8102;SDS011;4094;49.948;11.574;2024-01-07T03:39:16;15.93;;;14.70;;
8102;SDS011;4094;49.948;11.574;2024-01-07T03:42:05;16.37;;;15.07;;
8102;SDS011;4094;49.948;11.574;2024-01-07T03:44:58;17.10;;;15.70;;
8102;SDS011;4094;49.948;11.574;2024-01-07T03:47:47;16.23;;;14.93;;
8102;SDS011;4094;49.948;11.574;2024-01-07T03:50:36;16.93;;;15.67;;
8102;SDS011;4094;49.948;11.574;2024-01-07T03:53:24;16.73;;;15.43;;
8102;SDS011;4094;49.948;11.574;2024-01-07T03:56:14;16.73;;;15.40;;
8102;SDS011;4094;49.948;11.574;2024-01-07T03:59:03;17.30;;;15.90;;
8102;SDS011;4094;49.948;11.574;2024-01-07T04:01:52;18.47;;;16.87;;
8102;SDS011;4094;49.948;11.574;2024-01-07T04:04:42;17.93;;;16.43;;
8102;SDS011;4094;49.948;11.574;2024-01-07T04:07:30;18.67;;;17.00;;
8102;SDS011;4094;49.948;11.574;2024-01-07T04:10:18;18.63;;;17.03;;
8102;SDS011;4094;49.948;11.574;2024-01-07T04:13:07;18.07;;;16.57;;
8102;SDS011;4094;49.948;11.574;2024-01-07T04:15:55;19.37;;;17.67;;
8102;SDS011;4094;49.948;11.574;2024-01-07T04:18:43;18.87;;;17.37;;
8102;SDS011;4094;49.948;11.574;2024-01-07T04:21:32;18.57;;;17.03;;
8102;SDS011;4094;49.948;11.574;2024-01-07T04:24:21;19.60;;;18.00;;
8102;SDS011;4094;49.948;11.574;2024-01-07T04:27:09;19.97;;;18.17;;
8102;SDS011;4094;49.948;11.574;2024-01-07T04:29:57;19.10;;;17.50;;
8102;SDS011;4094;49.948;11.574;2024-01-07T04:32:46;19.87;;;18.17;;
8102;SDS011;4094;49.948;11.574;2024-01-07T04:35:34;19.30;;;17.73;;
8102;SDS011;4094;49.948;11.574;2024-01-07T04:38:22;20.13;;;18.47;;
8102;SDS011;4094;49.948;11.574;2024-01-07T04:41:11;19.87;;;18.07;;
8102;SDS011;4094;49.948;11.574;2024-01-07T04:43:59;20.27;;;18.47;;
8102;SDS011;4094;49.948;11.574;2024-01-07T04:46:47;20.13;;;18.43;;
8102;SDS011;4094;49.948;11.574;2024-01-07T04:49:36;21.07;;;19.13;;
8102;SDS011;4094;49.948;11.574;2024-01-07T04:52:26;20.77;;;18.77;;
8102;SDS011;4094;49.948;11.574;2024-01-07T04:55:14;21.20;;;19.30;;
8102;SDS011;4094;49.948;11.574;2024-01-07T04:58:04;20.63;;;18.83;;
8102;SDS011;4094;49.948;11.574;2024-01-07T05:00:52;21.00;;;19.13;;
8102;SDS011;4094;49.948;11.574;2024-01-07T05:03:40;21.97;;;19.90;;
8102;SDS011;4094;49.948;11.574;2024-01-07T05:06:28;22.77;;;20.67;;
8102;SDS011;4094;49.948;11.574;2024-01-07T05:09:17;21.57;;;19.67;;
8102;SDS011;4094;49.948;11.574;2024-01-07T05:12:05;21.53;;;19.53;;
8102;SDS011;4094;49.948;11.574;2024-01-07T05:14:54;21.73;;;19.77;;
8102;SDS011;4094;49.948;11.574;2024-01-07T05:17:42;22.07;;;20.17;;
8102;SDS011;4094;49.948;11.574;2024-01-07T05:20:30;21.23;;;19.43;;
8102;SDS011;4094;49.948;11.574;2024-01-07T05:23:19;22.30;;;20.30;;
8102;SDS011;4094;49.948;11.574;2024-01-07T05:26:08;24.37;;;22.17;;
8102;SDS011;4094;49.948;11.574;2024-01-07T05:28:56;24.03;;;21.77;;
8102;SDS011;4094;49.948;11.574;2024-01-07T05:31:45;23.70;;;21.60;;
8102;SDS011;4094;49.948;11.574;2024-01-07T05:34:36;25.20;;;22.90;;
8102;SDS011;4094;49.948;11.574;2024-01-07T05:37:24;24.10;;;22.00;;
8102;SDS011;4094;49.948;11.574;2024-01-07T05:40:12;23.77;;;21.77;;
8102;SDS011;4094;49.948;11.574;2024-01-07T05:43:02;24.27;;;22.17;;
8102;SDS011;4094;49.948;11.574;2024-01-07T05:45:50;23.40;;;21.50;;
8102;SDS011;4094;49.948;11.574;2024-01-07T05:48:43;23.93;;;21.73;;
8102;SDS011;4094;49.948;11.574;2024-01-07T05:51:32;24.50;;;22.40;;
8102;SDS011;4094;49.948;11.574;2024-01-07T05:54:20;24.37;;;22.27;;
8102;SDS011;4094;49.948;11.574;2024-01-07T05:57:10;24.40;;;22.17;;
8102;SDS011;4094;49.948;11.574;2024-01-07T05:59:59;25.03;;;22.83;;
8102;SDS011;4094;49.948;11.574;2024-01-07T06:02:48;23.50;;;21.40;;
8102;SDS011;4094;49.948;11.574;2024-01-07T06:05:38;25.07;;;22.90;;
8102;SDS011;4094;49.948;11.574;2024-01-07T06:08:26;25.07;;;22.77;;
8102;SDS011;4094;49.948;11.574;2024-01-07T06:11:16;24.43;;;22.33;;
8102;SDS011;4094;49.948;11.574;2024-01-07T06:14:07;24.67;;;22.40;;
8102;SDS011;4094;49.948;11.574;2024-01-07T06:16:55;24.47;;;22.27;;
8102;SDS011;4094;49.948;11.574;2024-01-07T06:19:43;24.80;;;22.43;;
8102;SDS011;4094;49.948;11.574;2024-01-07T06:22:33;24.13;;;22.03;;
8102;SDS011;4094;49.948;11.574;2024-01-07T06:25:22;22.90;;;20.93;;
8102;SDS011;4094;49.948;11.574;2024-01-07T06:28:13;23.13;;;21.17;;
8102;SDS011;4094;49.948;11.574;2024-01-07T06:31:02;23.70;;;21.70;;
8102;SDS011;4094;49.948;11.574;2024-01-07T06:33:50;24.03;;;21.87;;
8102;SDS011;4094;49.948;11.574;2024-01-07T06:36:38;22.73;;;20.83;;
8102;SDS011;4094;49.948;11.574;2024-01-07T06:39:28;23.80;;;21.70;;
8102;SDS011;4094;49.948;11.574;2024-01-07T06:42:15;21.97;;;19.97;;
8102;SDS011;4094;49.948;11.574;2024-01-07T06:45:04;22.40;;;20.40;;
8102;SDS011;4094;49.948;11.574;2024-01-07T06:47:53;20.63;;;18.90;;
8102;SDS011;4094;49.948;11.574;2024-01-07T06:50:41;21.00;;;19.30;;
8102;SDS011;4094;49.948;11.574;2024-01-07T06:53:30;21.53;;;19.73;;
8102;SDS011;4094;49.948;11.574;2024-01-07T06:56:19;21.93;;;20.03;;
8102;SDS011;4094;49.948;11.574;2024-01-07T06:59:07;21.40;;;19.50;;
8102;SDS011;4094;49.948;11.574;2024-01-07T07:01:57;20.10;;;18.40;;
8102;SDS011;4094;49.948;11.574;2024-01-07T07:04:45;21.83;;;19.93;;
8102;SDS011;4094;49.948;11.574;2024-01-07T07:07:33;21.93;;;19.93;;
8102;SDS011;4094;49.948;11.574;2024-01-07T07:10:22;23.27;;;21.27;;
8102;SDS011;4094;49.948;11.574;2024-01-07T07:13:11;22.63;;;20.73;;
8102;SDS011;4094;49.948;11.574;2024-01-07T07:15:59;21.67;;;19.87;;
8102;SDS011;4094;49.948;11.574;2024-01-07T07:18:47;22.30;;;20.20;;
8102;SDS011;4094;49.948;11.574;2024-01-07T07:21:35;20.93;;;19.13;;
8102;SDS011;4094;49.948;11.574;2024-01-07T07:24:23;23.07;;;21.03;;
8102;SDS011;4094;49.948;11.574;2024-01-07T07:27:11;20.83;;;19.13;;
8102;SDS011;4094;49.948;11.574;2024-01-07T07:30:00;22.87;;;20.97;;
8102;SDS011;4094;49.948;11.574;2024-01-07T07:32:48;23.13;;;21.23;;
8102;SDS011;4094;49.948;11.574;2024-01-07T07:35:36;21.23;;;19.30;;
8102;SDS011;4094;49.948;11.574;2024-01-07T07:38:26;22.00;;;20.03;;
8102;SDS011;4094;49.948;11.574;2024-01-07T07:41:14;20.80;;;19.00;;
8102;SDS011;4094;49.948;11.574;2024-01-07T07:44:02;22.20;;;20.10;;
8102;SDS011;4094;49.948;11.574;2024-01-07T07:46:51;20.70;;;18.93;;
8102;SDS011;4094;49.948;11.574;2024-01-07T07:49:46;21.30;;;19.43;;
8102;SDS011;4094;49.948;11.574;2024-01-07T07:52:37;22.67;;;20.67;;
8102;SDS011;4094;49.948;11.574;2024-01-07T07:55:25;22.90;;;20.87;;
8102;SDS011;4094;49.948;11.574;2024-01-07T07:58:14;21.83;;;20.00;;
8102;SDS011;4094;49.948;11.574;2024-01-07T08:01:03;23.97;;;21.80;;
8102;SDS011;4094;49.948;11.574;2024-01-07T08:03:52;21.43;;;19.53;;
8102;SDS011;4094;49.948;11.574;2024-01-07T08:06:43;21.93;;;20.07;;
8102;SDS011;4094;49.948;11.574;2024-01-07T08:09:32;22.73;;;20.73;;
8102;SDS011;4094;49.948;11.574;2024-01-07T08:12:21;21.60;;;19.70;;
8102;SDS011;4094;49.948;11.574;2024-01-07T08:15:09;22.60;;;20.60;;
8102;SDS011;4094;49.948;11.574;2024-01-07T08:17:58;23.03;;;20.97;;
8102;SDS011;4094;49.948;11.574;2024-01-07T08:20:46;22.90;;;20.80;;
8102;SDS011;4094;49.948;11.574;2024-01-07T08:23:34;21.53;;;19.57;;
8102;SDS011;4094;49.948;11.574;2024-01-07T08:26:23;22.00;;;19.90;;
8102;SDS011;4094;49.948;11.574;2024-01-07T08:29:12;22.60;;;20.60;;
8102;SDS011;4094;49.948;11.574;2024-01-07T08:32:00;22.73;;;20.60;;
8102;SDS011;4094;49.948;11.574;2024-01-07T08:34:49;23.23;;;21.07;;
8102;SDS011;4094;49.948;11.574;2024-01-07T08:37:38;23.33;;;21.07;;
8102;SDS011;4094;49.948;11.574;2024-01-07T08:40:26;22.27;;;20.27;;
8102;SDS011;4094;49.948;11.574;2024-01-07T08:43:14;23.90;;;21.73;;
8102;SDS011;4094;49.948;11.574;2024-01-07T08:46:03;22.90;;;20.70;;
8102;SDS011;4094;49.948;11.574;2024-01-07T08:48:53;22.13;;;20.03;;
8102;SDS011;4094;49.948;11.574;2024-01-07T08:51:41;21.67;;;19.67;;
8102;SDS011;4094;49.948;11.574;2024-01-07T08:54:30;22.83;;;20.83;;
8102;SDS011;4094;49.948;11.574;2024-01-07T08:57:19;22.50;;;20.47;;
8102;SDS011;4094;49.948;11.574;2024-01-07T09:00:07;22.50;;;20.37;;
8102;SDS011;4094;49.948;11.574;2024-01-07T09:02:56;22.77;;;20.67;;
8102;SDS011;4094;49.948;11.574;2024-01-07T09:05:44;21.90;;;20.03;;
8102;SDS011;4094;49.948;11.574;2024-01-07T09:08:32;23.37;;;21.07;;
8102;SDS011;4094;49.948;11.574;2024-01-07T09:11:21;30.43;;;27.13;;
8102;SDS011;4094;49.948;11.574;2024-01-07T09:14:11;34.23;;;29.97;;
8102;SDS011;4094;49.948;11.574;2024-01-07T09:16:59;25.13;;;22.83;;
8102;SDS011;4094;49.948;11.574;2024-01-07T09:19:47;25.30;;;22.90;;
8102;SDS011;4094;49.948;11.574;2024-01-07T09:22:36;24.10;;;21.60;;
8102;SDS011;4094;49.948;11.574;2024-01-07T09:25:24;24.67;;;22.40;;
8102;SDS011;4094;49.948;11.574;2024-01-07T09:28:14;25.53;;;22.97;;
8102;SDS011;4094;49.948;11.574;2024-01-07T09:31:03;22.77;;;20.77;;
8102;SDS011;4094;49.948;11.574;2024-01-07T09:33:51;23.20;;;21.10;;
8102;SDS011;4094;49.948;11.574;2024-01-07T09:36:40;23.07;;;20.80;;
8102;SDS011;4094;49.948;11.574;2024-01-07T09:39:29;21.93;;;19.97;;
8102;SDS011;4094;49.948;11.574;2024-01-07T09:42:18;22.50;;;20.30;;
8102;SDS011;4094;49.948;11.574;2024-01-07T09:45:09;22.03;;;20.03;;
8102;SDS011;4094;49.948;11.574;2024-01-07T09:47:59;22.07;;;20.17;;
8102;SDS011;4094;49.948;11.574;2024-01-07T09:50:48;23.70;;;21.40;;
8102;SDS011;4094;49.948;11.574;2024-01-07T09:53:38;25.80;;;23.30;;
8102;SDS011;4094;49.948;11.574;2024-01-07T09:56:26;22.53;;;20.50;;
8102;SDS011;4094;49.948;11.574;2024-01-07T09:59:22;23.60;;;21.40;;
8102;SDS011;4094;49.948;11.574;2024-01-07T10:02:10;23.37;;;21.07;;
8102;SDS011;4094;49.948;11.574;2024-01-07T10:04:59;23.53;;;21.23;;
8102;SDS011;4094;49.948;11.574;2024-01-07T10:07:48;24.33;;;21.93;;
8102;SDS011;4094;49.948;11.574;2024-01-07T10:10:36;21.23;;;19.33;;
8102;SDS011;4094;49.948;11.574;2024-01-07T10:13:24;19.73;;;18.00;;
8102;SDS011;4094;49.948;11.574;2024-01-07T10:16:13;21.17;;;19.00;;
8102;SDS011;4094;49.948;11.574;2024-01-07T10:19:02;20.73;;;18.83;;
8102;SDS011;4094;49.948;11.574;2024-01-07T10:21:59;19.73;;;17.63;;
8102;SDS011;4094;49.948;11.574;2024-01-07T10:24:51;19.53;;;17.70;;
8102;SDS011;4094;49.948;11.574;2024-01-07T10:27:39;19.70;;;17.80;;
8102;SDS011;4094;49.948;11.574;2024-01-07T10:30:27;19.47;;;17.67;;
8102;SDS011;4094;49.948;11.574;2024-01-07T10:33:16;18.30;;;16.60;;
8102;SDS011;4094;49.948;11.574;2024-01-07T10:36:07;18.23;;;16.63;;
8102;SDS011;4094;49.948;11.574;2024-01-07T10:38:57;19.60;;;17.87;;
8102;SDS011;4094;49.948;11.574;2024-01-07T10:41:47;19.13;;;17.40;;
8102;SDS011;4094;49.948;11.574;2024-01-07T10:44:37;19.73;;;17.97;;
8102;SDS011;4094;49.948;11.574;2024-01-07T10:47:27;20.43;;;18.53;;
8102;SDS011;4094;49.948;11.574;2024-01-07T10:50:18;19.23;;;17.43;;
8102;SDS011;4094;49.948;11.574;2024-01-07T10:53:07;19.97;;;18.17;;
8102;SDS011;4094;49.948;11.574;2024-01-07T10:56:03;19.90;;;18.20;;
8102;SDS011;4094;49.948;11.574;2024-01-07T10:58:52;18.73;;;17.10;;
8102;SDS011;4094;49.948;11.574;2024-01-07T11:01:41;19.23;;;17.43;;
8102;SDS011;4094;49.948;11.574;2024-01-07T11:04:32;18.47;;;16.87;;
8102;SDS011;4094;49.948;11.574;2024-01-07T11:07:29;17.57;;;16.17;;
8102;SDS011;4094;49.948;11.574;2024-01-07T11:10:26;18.63;;;16.93;;
8102;SDS011;4094;49.948;11.574;2024-01-07T11:13:31;20.30;;;18.50;;
8102;SDS011;4094;49.948;11.574;2024-01-07T11:19:31;17.63;;;16.10;;
8102;SDS011;4094;49.948;11.574;2024-01-07T11:22:24;17.40;;;15.83;;
8102;SDS011;4094;49.948;11.574;2024-01-07T11:25:31;17.17;;;15.67;;
8102;SDS011;4094;49.948;11.574;2024-01-07T11:28:24;18.40;;;16.70;;
8102;SDS011;4094;49.948;11.574;2024-01-07T11:31:44;17.17;;;15.77;;
8102;SDS011;4094;49.948;11.574;2024-01-07T11:34:39;17.37;;;15.87;;
8102;SDS011;4094;49.948;11.574;2024-01-07T11:37:28;17.00;;;15.40;;
8102;SDS011;4094;49.948;11.574;2024-01-07T11:40:17;17.30;;;15.70;;
8102;SDS011;4094;49.948;11.574;2024-01-07T11:43:07;16.03;;;14.73;;
8102;SDS011;4094;49.948;11.574;2024-01-07T11:45:57;16.90;;;15.50;;
8102;SDS011;4094;49.948;11.574;2024-01-07T11:48:45;16.47;;;15.07;;
8102;SDS011;4094;49.948;11.574;2024-01-07T11:51:33;17.30;;;15.80;;
8102;SDS011;4094;49.948;11.574;2024-01-07T11:54:22;17.90;;;16.40;;
8102;SDS011;4094;49.948;11.574;2024-01-07T11:57:11;17.20;;;15.80;;
8102;SDS011;4094;49.948;11.574;2024-01-07T12:00:01;16.20;;;14.90;;
8102;SDS011;4094;49.948;11.574;2024-01-07T12:02:58;16.30;;;14.93;;
8102;SDS011;4094;49.948;11.574;2024-01-07T12:05:48;16.47;;;15.17;;
8102;SDS011;4094;49.948;11.574;2024-01-07T12:08:36;17.10;;;15.63;;
8102;SDS011;4094;49.948;11.574;2024-01-07T12:11:24;17.10;;;15.70;;
8102;SDS011;4094;49.948;11.574;2024-01-07T12:14:12;16.63;;;15.33;;
8102;SDS011;4094;49.948;11.574;2024-01-07T12:17:02;16.00;;;14.80;;
8102;SDS011;4094;49.948;11.574;2024-01-07T12:19:51;16.90;;;15.60;;
8102;SDS011;4094;49.948;11.574;2024-01-07T12:22:39;17.30;;;15.80;;
8102;SDS011;4094;49.948;11.574;2024-01-07T12:25:28;15.93;;;14.80;;
8102;SDS011;4094;49.948;11.574;2024-01-07T12:28:16;16.57;;;15.37;;
8102;SDS011;4094;49.948;11.574;2024-01-07T12:31:07;16.67;;;15.37;;
8102;SDS011;4094;49.948;11.574;2024-01-07T12:33:57;16.53;;;15.30;;
8102;SDS011;4094;49.948;11.574;2024-01-07T12:36:45;16.53;;;15.30;;
8102;SDS011;4094;49.948;11.574;2024-01-07T12:39:34;17.43;;;16.13;;
8102;SDS011;4094;49.948;11.574;2024-01-07T12:42:24;16.53;;;15.23;;
8102;SDS011;4094;49.948;11.574;2024-01-07T12:45:13;17.10;;;15.83;;
8102;SDS011;4094;49.948;11.574;2024-01-07T12:48:03;16.67;;;15.27;;
8102;SDS011;4094;49.948;11.574;2024-01-07T12:50:53;16.20;;;15.00;;
8102;SDS011;4094;49.948;11.574;2024-01-07T12:53:42;16.03;;;14.63;;
8102;SDS011;4094;49.948;11.574;2024-01-07T12:56:31;16.23;;;15.00;;
8102;SDS011;4094;49.948;11.574;2024-01-07T12:59:20;15.53;;;14.43;;
8102;SDS011;4094;49.948;11.574;2024-01-07T13:02:09;16.03;;;14.77;;
8102;SDS011;4094;49.948;11.574;2024-01-07T13:04:59;16.43;;;14.90;;
8102;SDS011;4094;49.948;11.574;2024-01-07T13:07:48;15.10;;;13.90;;
8102;SDS011;4094;49.948;11.574;2024-01-07T13:10:38;15.07;;;14.07;;
8102;SDS011;4094;49.948;11.574;2024-01-07T13:13:26;15.33;;;14.13;;
8102;SDS011;4094;49.948;11.574;2024-01-07T13:16:14;14.17;;;13.17;;
8102;SDS011;4094;49.948;11.574;2024-01-07T13:19:05;14.43;;;13.40;;
8102;SDS011;4094;49.948;11.574;2024-01-07T13:21:54;14.27;;;13.27;;
8102;SDS011;4094;49.948;11.574;2024-01-07T13:24:46;15.00;;;13.90;;
8102;SDS011;4094;49.948;11.574;2024-01-07T13:27:34;14.97;;;13.90;;
8102;SDS011;4094;49.948;11.574;2024-01-07T13:30:24;15.20;;;14.00;;
8102;SDS011;4094;49.948;11.574;2024-01-07T13:33:13;15.43;;;14.30;;
8102;SDS011;4094;49.948;11.574;2024-01-07T13:36:07;16.03;;;14.80;;
8102;SDS011;4094;49.948;11.574;2024-01-07T13:38:57;15.57;;;14.47;;
8102;SDS011;4094;49.948;11.574;2024-01-07T13:41:47;15.30;;;14.20;;
8102;SDS011;4094;49.948;11.574;2024-01-07T13:44:35;14.80;;;13.70;;
8102;SDS011;4094;49.948;11.574;2024-01-07T13:47:32;15.03;;;13.83;;
8102;SDS011;4094;49.948;11.574;2024-01-07T13:50:24;14.77;;;13.70;;
8102;SDS011;4094;49.948;11.574;2024-01-07T13:53:13;14.73;;;13.67;;
8102;SDS011;4094;49.948;11.574;2024-01-07T13:56:02;14.83;;;13.73;;
8102;SDS011;4094;49.948;11.574;2024-01-07T13:58:52;16.03;;;14.73;;
8102;SDS011;4094;49.948;11.574;2024-01-07T14:01:41;14.07;;;13.07;;
8102;SDS011;4094;49.948;11.574;2024-01-07T14:04:32;14.30;;;13.30;;
8102;SDS011;4094;49.948;11.574;2024-01-07T14:07:24;14.13;;;13.03;;
8102;SDS011;4094;49.948;11.574;2024-01-07T14:10:13;14.40;;;13.30;;
8102;SDS011;4094;49.948;11.574;2024-01-07T14:13:03;14.50;;;13.50;;
8102;SDS011;4094;49.948;11.574;2024-01-07T14:15:51;13.47;;;12.57;;
8102;SDS011;4094;49.948;11.574;2024-01-07T14:18:40;13.93;;;12.93;;
8102;SDS011;4094;49.948;11.574;2024-01-07T14:21:28;13.10;;;12.20;;
8102;SDS011;4094;49.948;11.574;2024-01-07T14:24:18;14.30;;;13.30;;
8102;SDS011;4094;49.948;11.574;2024-01-07T14:27:06;14.20;;;13.27;;
8102;SDS011;4094;49.948;11.574;2024-01-07T14:29:56;15.37;;;14.17;;
8102;SDS011;4094;49.948;11.574;2024-01-07T14:32:45;13.67;;;12.77;;
8102;SDS011;4094;49.948;11.574;2024-01-07T14:35:34;39.43;;;31.30;;
8102;SDS011;4094;49.948;11.574;2024-01-07T14:38:23;16.20;;;14.93;;
8102;SDS011;4094;49.948;11.574;2024-01-07T14:41:13;14.83;;;13.73;;
8102;SDS011;4094;49.948;11.574;2024-01-07T14:44:01;15.77;;;14.57;;
8102;SDS011;4094;49.948;11.574;2024-01-07T14:46:55;15.40;;;14.30;;
8102;SDS011;4094;49.948;11.574;2024-01-07T14:49:44;14.70;;;13.70;;
8102;SDS011;4094;49.948;11.574;2024-01-07T14:52:33;14.33;;;13.33;;
8102;SDS011;4094;49.948;11.574;2024-01-07T14:55:21;14.10;;;13.10;;
8102;SDS011;4094;49.948;11.574;2024-01-07T14:58:10;13.93;;;12.93;;
8102;SDS011;4094;49.948;11.574;2024-01-07T15:00:58;13.47;;;12.57;;
8102;SDS011;4094;49.948;11.574;2024-01-07T15:03:48;13.47;;;12.57;;
8102;SDS011;4094;49.948;11.574;2024-01-07T15:06:40;15.00;;;14.00;;
8102;SDS011;4094;49.948;11.574;2024-01-07T15:09:33;14.27;;;13.27;;
8102;SDS011;4094;49.948;11.574;2024-01-07T15:12:24;14.53;;;13.53;;
8102;SDS011;4094;49.948;11.574;2024-01-07T15:15:12;14.87;;;13.77;;
8102;SDS011;4094;49.948;11.574;2024-01-07T15:18:02;14.83;;;13.83;;
8102;SDS011;4094;49.948;11.574;2024-01-07T15:20:51;15.67;;;14.53;;
8102;SDS011;4094;49.948;11.574;2024-01-07T15:23:40;15.53;;;14.43;;
8102;SDS011;4094;49.948;11.574;2024-01-07T15:26:28;17.83;;;16.27;;
8102;SDS011;4094;49.948;11.574;2024-01-07T15:29:17;13.77;;;12.77;;
8102;SDS011;4094;49.948;11.574;2024-01-07T15:32:06;14.37;;;13.37;;
8102;SDS011;4094;49.948;11.574;2024-01-07T15:34:55;14.30;;;13.30;;
8102;SDS011;4094;49.948;11.574;2024-01-07T15:37:45;13.87;;;13.03;;
8102;SDS011;4094;49.948;11.574;2024-01-07T15:40:33;13.97;;;13.07;;
8102;SDS011;4094;49.948;11.574;2024-01-07T15:43:23;13.37;;;12.50;;
8102;SDS011;4094;49.948;11.574;2024-01-07T15:46:12;13.77;;;12.87;;
8102;SDS011;4094;49.948;11.574;2024-01-07T15:49:04;14.17;;;13.27;;
8102;SDS011;4094;49.948;11.574;2024-01-07T15:51:55;13.10;;;12.30;;
8102;SDS011;4094;49.948;11.574;2024-01-07T15:54:43;12.80;;;12.00;;
8102;SDS011;4094;49.948;11.574;2024-01-07T15:57:33;12.83;;;12.03;;
8102;SDS011;4094;49.948;11.574;2024-01-07T16:00:22;13.17;;;12.27;;
8102;SDS011;4094;49.948;11.574;2024-01-07T16:03:10;12.20;;;11.40;;
8102;SDS011;4094;49.948;11.574;2024-01-07T16:05:59;12.80;;;12.10;;
8102;SDS011;4094;49.948;11.574;2024-01-07T16:08:48;12.80;;;12.00;;
8102;SDS011;4094;49.948;11.574;2024-01-07T16:11:36;11.83;;;11.13;;
8102;SDS011;4094;49.948;11.574;2024-01-07T16:14:25;12.60;;;11.80;;
8102;SDS011;4094;49.948;11.574;2024-01-07T16:17:14;12.33;;;11.53;;
8102;SDS011;4094;49.948;11.574;2024-01-07T16:20:03;12.93;;;12.03;;
8102;SDS011;4094;49.948;11.574;2024-01-07T16:22:52;11.90;;;11.20;;
8102;SDS011;4094;49.948;11.574;2024-01-07T16:25:39;12.47;;;11.67;;
8102;SDS011;4094;49.948;11.574;2024-01-07T16:28:27;12.23;;;11.53;;
8102;SDS011;4094;49.948;11.574;2024-01-07T16:31:16;12.70;;;11.90;;
8102;SDS011;4094;49.948;11.574;2024-01-07T16:34:04;12.77;;;11.97;;
8102;SDS011;4094;49.948;11.574;2024-01-07T16:36:53;12.20;;;11.47;;
8102;SDS011;4094;49.948;11.574;2024-01-07T16:39:42;12.10;;;11.40;;
8102;SDS011;4094;49.948;11.574;2024-01-07T16:42:30;12.83;;;12.03;;
8102;SDS011;4094;49.948;11.574;2024-01-07T16:45:18;12.13;;;11.43;;
8102;SDS011;4094;49.948;11.574;2024-01-07T16:48:08;12.10;;;11.40;;